Flight Track Log - Related Links

Times and Time Zones

All times are in EDT time to prevent confusion due to time zone crossing. See the ASQ6151 flight status page for this flight to view local times or setup timezone preferences in your user account.


Time Position Orientation Groundspeed Altitude Reporting Facility
EDT Latitude Longitude Course Direction KTS MPH feet Rate Location/Type
Tue 04:26:00 PM 36.2385 -80.1885 321° Northwest  Level FlightAware Approximate
Tue 04:26:33 PM 36.2492 -79.7803 302° West 255 293 8,000  Level Atlanta Center
Tue 04:27:00 PM 36.2862 -80.2722 302° West  Level FlightAware Approximate
Tue 04:27:33 PM 36.2744 -79.8408 297° West 250 288 10,100  Level Atlanta Center
Tue 04:28:00 PM 36.3319 -80.3586 307° West  Level FlightAware Approximate
Tue 04:28:33 PM 36.3000 -79.9244 291° West 249 287 11,600  Level Atlanta Center
Tue 04:29:00 PM 36.3817 -80.4416 307° West  Level FlightAware Approximate
Tue 04:29:33 PM 36.3283 -80.0211 290° West 274 315 12,000  Level Atlanta Center
Tue 04:30:00 PM 36.4298 -80.5262 302° West  Level FlightAware Approximate
Tue 04:30:33 PM 36.3631 -80.1328 291° West 313 360 12,000  Level Atlanta Center
Tue 04:31:00 PM 36.4738 -80.6142 302° West  Level FlightAware Approximate
Tue 04:31:33 PM 36.4128 -80.2542 297° West 351 404 13,300  Level Atlanta Center
Tue 04:32:33 PM 36.4700 -80.3469 308° West 351 404 14,800 1,500 Climbing Atlanta Center
Tue 04:33:33 PM 36.5250 -80.4478 304° West 351 404 16,300 1,450 Climbing Atlanta Center
Tue 04:34:33 PM 36.5800 -80.5408 306° West 346 398 17,700 1,400 Climbing Atlanta Center
Tue 04:35:33 PM 36.6367 -80.6342 307° West 341 392 19,100 1,300 Climbing Atlanta Center
Tue 04:36:33 PM 36.6936 -80.7353 305° West 347 399 20,300 1,200 Climbing Atlanta Center
Tue 04:37:33 PM 36.7506 -80.8339 306° West 352 405 21,500 1,150 Climbing Atlanta Center
Tue 04:38:33 PM 36.8031 -80.9303 304° West 357 411 22,600 1,250 Climbing Atlanta Center
Tue 04:39:33 PM 36.8686 -81.0472 305° West 364 419 24,000 1,300 Climbing Atlanta Center
Tue 04:40:33 PM 36.9272 -81.1489 306° West 369 425 25,200 1,148 Climbing Atlanta Center
Tue 04:42:15 PM 37.0250 -81.3103 307° West 368 423 27,100 1,215 Climbing Indianapolis Center
Tue 04:43:16 PM 37.0933 -81.4314 305° West 368 423 28,500 1,268 Climbing Indianapolis Center
Tue 04:44:18 PM 37.1503 -81.5342 305° West 361 415 29,700 1,161 Climbing Indianapolis Center
Tue 04:45:20 PM 37.2094 -81.6369 306° West 363 418 30,900 1,171 Climbing Indianapolis Center
Tue 04:46:21 PM 37.2664 -81.7397 305° West 360 414 32,100 1,024 Climbing Indianapolis Center
Tue 04:47:23 PM 37.3244 -81.8436 305° West 362 417 33,000 871 Climbing Indianapolis Center
Tue 04:48:25 PM 37.3836 -81.9494 305° West 368 423 33,900 484 Climbing Indianapolis Center
Tue 04:49:27 PM 37.4536 -82.0772 305° West 378 435 34,000 49 Climbing Indianapolis Center
Tue 04:50:28 PM 37.5183 -82.1933 305° West 399 459 34,000  Level Indianapolis Center
Tue 04:51:30 PM 37.5811 -82.3083 305° West 399 459 34,000  Level Indianapolis Center
Tue 04:52:32 PM 37.6433 -82.4208 305° West 393 452 34,000  Level Indianapolis Center
Tue 04:53:33 PM 37.7031 -82.5297 305° West 382 440 34,000  Level Indianapolis Center
Tue 04:54:35 PM 37.7739 -82.6597 305° West 385 443 34,000  Level Indianapolis Center
Tue 04:55:37 PM 37.8344 -82.7722 304° West 388 447 34,000  Level Indianapolis Center
Tue 04:56:39 PM 37.8975 -82.8878 305° West 395 455 34,000  Level Indianapolis Center
Tue 04:57:40 PM 37.9578 -83.0003 304° West 392 451 34,000  Level Indianapolis Center
Tue 04:58:42 PM 38.0172 -83.1117 304° West 383 441 34,000  Level Indianapolis Center
Tue 04:59:44 PM 38.0769 -83.2242 304° West 385 443 34,000  Level Indianapolis Center
Tue 05:00:45 PM 38.1331 -83.3658 297° West 399 459 34,000  Level Indianapolis Center
Tue 05:01:47 PM 38.1383 -83.5131 273° West 418 481 34,000  Level Indianapolis Center
Tue 05:02:49 PM 38.1419 -83.6603 272° West 418 481 34,000  Level Indianapolis Center
Tue 05:03:51 PM 38.1467 -83.8078 272° West 419 482 34,000  Level Indianapolis Center
Tue 05:04:52 PM 38.1739 -83.9453 284° West 409 471 34,000  Level Indianapolis Center
Tue 05:05:54 PM 38.2589 -84.0225 325° Northwest 377 434 34,000  Level Indianapolis Center
Tue 05:06:56 PM 38.3497 -84.0892 330° Northwest 374 430 34,000  Level Indianapolis Center
Tue 05:07:58 PM 38.4575 -84.1658 331° Northwest 378 435 34,000  Level Indianapolis Center
Tue 05:09:00 PM 38.5492 -84.2339 330° Northwest 381 438 34,000  Level Indianapolis Center
Tue 05:10:01 PM 38.6428 -84.3006 331° Northwest 383 441 34,000  Level Indianapolis Center
Tue 05:11:03 PM 38.7417 -84.3719 331° Northwest 380 437 34,000  Level Indianapolis Center
Tue 05:12:04 PM 38.8297 -84.4464 327° Northwest 380 437 34,000 -98 Level Indianapolis Center
Tue 05:13:06 PM 38.8933 -84.5422 310° West 395 455 33,800 -484 Descending Indianapolis Center
Tue 05:14:08 PM 38.9756 -84.6586 312° West 394 453 33,000 -871 Descending Indianapolis Center
Tue 05:15:10 PM 39.0469 -84.7608 312° West 386 444 32,000 -1,024 Descending Indianapolis Center
Tue 05:16:11 PM 39.1183 -84.8619 312° West 383 441 30,900 -1,122 Descending Indianapolis Center
Tue 05:17:13 PM 39.2142 -84.9344 330° Northwest 377 434 29,700 -1,113 Descending Indianapolis Center
Tue 05:18:15 PM 39.3042 -84.9861 336° Northwest 361 415 28,600 -823 Descending Indianapolis Center
Tue 05:19:17 PM 39.3936 -85.0378 336° Northwest 355 409 28,000 -293 Descending Indianapolis Center
Tue 05:20:18 PM 39.4828 -85.0883 336° Northwest 352 405 28,000  Level Indianapolis Center
Tue 05:21:20 PM 39.5953 -85.1539 336° Northwest 366 421 28,000  Level Indianapolis Center
Tue 05:22:22 PM 39.6939 -85.2103 336° Northwest 384 442 28,000  Level Indianapolis Center
Tue 05:23:24 PM 39.7950 -85.2689 336° Northwest 395 455 28,000  Level Indianapolis Center
Tue 05:24:25 PM 39.8953 -85.3275 336° Northwest 398 458 28,000 -195 Level Indianapolis Center
Tue 05:25:27 PM 39.9950 -85.3850 336° Northwest 396 456 27,600 -774 Descending Indianapolis Center
Tue 05:26:29 PM 40.1139 -85.4547 336° Northwest 394 453 26,400 -1,065 Descending Indianapolis Center
Tue 05:27:31 PM 40.2114 -85.5119 336° Northwest 389 448 25,400 -968 Descending Indianapolis Center
Tue 05:28:33 PM 40.3094 -85.5681 336° Northwest 388 447 24,400 -683 Descending Indianapolis Center
Tue 05:29:34 PM 40.4103 -85.6133 341° North 387 445 24,000 -350 Descending Indianapolis Center
Tue 05:30:16 PM 40.4933 -85.6508 341° North 394 453 23,800 -577 Descending Chicago Center
Tue 05:31:18 PM 40.5914 -85.7183 332° Northwest 402 463 23,000 -387 Descending Chicago Center
Tue 05:32:20 PM 40.6786 -85.8119 321° Northwest 406 467 23,000 -290 Level Chicago Center
Tue 05:33:22 PM 40.7658 -85.9117 319° Northwest 410 472 22,400 -774 Descending Chicago Center
Tue 05:34:24 PM 40.8522 -86.0083 320° Northwest 407 468 21,400 -919 Descending Chicago Center
Tue 05:35:26 PM 40.9361 -86.1011 320° Northwest 397 457 20,500 -919 Descending Chicago Center
Tue 05:36:28 PM 41.0192 -86.1950 320° Northwest 393 452 19,500 -1,065 Descending Chicago Center
Tue 05:37:30 PM 41.1175 -86.3067 319° Northwest 388 447 18,300 -1,113 Descending Chicago Center
Tue 05:38:32 PM 41.1997 -86.3997 320° Northwest 389 448 17,200 -1,283 Descending Chicago Center
Tue 05:40:37 PM 41.3594 -86.5808 320° Northwest 376 433 14,300 -1,419 Descending Chicago Center
Tue 05:41:38 PM 41.4361 -86.6678 320° Northwest 366 421 12,800 -1,122 Descending Chicago Center
Tue 05:42:40 PM 41.5239 -86.7656 320° Northwest 352 405 12,000 -387 Descending Chicago Center
Tue 05:43:42 PM 41.6178 -86.7906 349° North 352 405 12,000  Level Chicago Center
Tue 05:44:44 PM 41.7133 -86.8006 356° North 351 404 12,000 -387 Level Chicago Center
Tue 05:45:46 PM 41.7947 -86.8122 354° North 317 365 11,200 -484 Descending Chicago Center
Tue 05:46:48 PM 41.8694 -86.8331 348° North 285 328 11,000 -435 Descending Chicago Center
Tue 05:47:50 PM 41.9156 -86.9431 299° West 283 326 10,300 -484 Descending Chicago Center
Tue 05:48:52 PM 41.9492 -87.0350 296° West 279 321 10,000 -194 Descending Chicago Center
Tue 05:49:54 PM 41.9786 -87.1303 293° West 277 319 9,900 -484 Descending Chicago Center
Tue 05:50:56 PM 41.9833 -87.2325 274° West 278 320 9,000 -1,016 Descending Chicago Center
Tue 05:51:58 PM 41.9831 -87.3322 270° West 272 313 7,800 -968 Descending Chicago Center
Tue 05:53:00 PM 41.9833 -87.4511 270° West 268 308 7,000 -919 Descending Chicago Center
Tue 05:54:02 PM 41.9831 -87.5472 270° West 261 300 5,900 -1,258 Descending Chicago Center
Tue 05:55:04 PM 41.9839 -87.6350 271° West 248 285 4,400 -1,426 Descending Chicago Center
Tue 05:55:43 PM 41.9833 -87.6833 269° West 218 251 3,500 -1,152 Descending Chicago TRACON
Tue 05:56:43 PM 41.9833 -87.7667 270° West 193 222 2,500 -950 Descending Chicago TRACON
Tue 05:57:43 PM 41.9833 -87.8167 270° West 146 168 1,600 -800 Descending Chicago TRACON
Tue 05:58:43 PM 41.9833 -87.8667 270° West 128 147 900 -700 Descending Chicago TRACON

Login

Don't have an account? Register now (free) for customized features, flight alerts, and more!